createdAt,value
2018-04-14T00:02:25.629Z,7.61
2018-04-14T00:04:53.628Z,7.70
2018-04-14T00:07:22.033Z,7.80
2018-04-14T00:09:49.664Z,7.80
2018-04-14T00:12:18.135Z,7.80
2018-04-14T00:14:47.679Z,7.68
2018-04-14T00:17:16.367Z,7.71
2018-04-14T00:19:43.918Z,7.73
2018-04-14T00:22:11.444Z,7.52
2018-04-14T00:24:39.013Z,7.59
2018-04-14T00:27:06.549Z,7.37
2018-04-14T00:29:34.148Z,7.16
2018-04-14T00:32:01.656Z,7.42
2018-04-14T00:34:29.203Z,7.40
2018-04-14T00:36:56.726Z,7.27
2018-04-14T00:39:24.337Z,7.35
2018-04-14T00:41:51.861Z,7.49
2018-04-14T00:44:19.493Z,7.56
2018-04-14T00:46:47.077Z,7.46
2018-04-14T00:49:14.641Z,7.35
2018-04-14T00:51:42.175Z,7.39
2018-04-14T00:54:09.722Z,7.37
2018-04-14T00:56:37.279Z,7.36
2018-04-14T00:59:04.851Z,7.42
2018-04-14T01:01:32.410Z,7.31
2018-04-14T01:06:33.833Z,6.84
2018-04-14T01:09:01.449Z,6.88
2018-04-14T01:11:28.990Z,6.82
2018-04-14T01:13:56.541Z,7.00
2018-04-14T01:16:24.065Z,7.00
2018-04-14T01:18:51.621Z,6.91
2018-04-14T01:21:19.151Z,7.04
2018-04-14T01:23:46.751Z,7.07
2018-04-14T01:26:14.306Z,7.12
2018-04-14T01:28:41.855Z,7.13
2018-04-14T01:31:09.438Z,7.17
2018-04-14T01:33:36.961Z,7.08
2018-04-14T01:36:04.537Z,6.92
2018-04-14T01:38:32.065Z,6.78
2018-04-14T01:40:59.650Z,6.84
2018-04-14T01:43:27.190Z,6.75
2018-04-14T01:45:54.769Z,6.71
2018-04-14T01:48:22.327Z,6.62
2018-04-14T01:50:49.901Z,6.76
2018-04-14T01:53:17.429Z,6.77
2018-04-14T01:55:45.033Z,6.75
2018-04-14T01:58:12.605Z,6.70
2018-04-14T02:00:40.162Z,6.70
2018-04-14T02:03:07.686Z,6.71
2018-04-14T02:05:35.243Z,6.61
2018-04-14T02:08:02.762Z,6.59
2018-04-14T02:10:30.322Z,6.63
2018-04-14T02:12:57.996Z,6.54
2018-04-14T02:15:25.549Z,6.43
2018-04-14T02:17:53.101Z,6.15
2018-04-14T02:20:20.656Z,6.37
2018-04-14T02:22:48.206Z,6.42
2018-04-14T02:25:15.757Z,6.47
2018-04-14T02:27:43.289Z,6.44
2018-04-14T02:30:10.863Z,6.48
2018-04-14T02:32:39.466Z,6.47
2018-04-14T02:35:07.018Z,6.28
2018-04-14T02:37:34.542Z,6.23
2018-04-14T02:40:02.174Z,6.34
2018-04-14T02:42:29.725Z,6.38
2018-04-14T02:44:57.277Z,6.40
2018-04-14T02:47:24.829Z,6.38
2018-04-14T02:49:52.408Z,6.12
2018-04-14T02:52:20.001Z,6.25
2018-04-14T02:54:47.544Z,6.36
2018-04-14T02:57:15.128Z,6.29
2018-04-14T02:59:42.688Z,6.22
2018-04-14T03:02:10.310Z,6.05
2018-04-14T03:04:37.973Z,6.11
2018-04-14T03:07:05.542Z,6.02
2018-04-14T03:09:33.077Z,6.03
2018-04-14T03:12:00.649Z,5.97
2018-04-14T03:14:28.170Z,5.94
2018-04-14T03:16:55.731Z,5.93
2018-04-14T03:19:23.256Z,5.99
2018-04-14T03:21:50.892Z,5.85
2018-04-14T03:24:18.429Z,5.96
2018-04-14T03:26:45.993Z,6.03
2018-04-14T03:29:13.516Z,6.08
2018-04-14T03:31:41.117Z,6.11
2018-04-14T03:34:08.667Z,5.98
2018-04-14T03:36:36.223Z,5.95
2018-04-14T03:39:03.778Z,5.82
2018-04-14T03:41:31.354Z,5.62
2018-04-14T03:43:58.906Z,5.70
2018-04-14T03:46:26.459Z,5.65
2018-04-14T03:48:53.983Z,5.70
2018-04-14T03:51:21.566Z,5.81
2018-04-14T03:53:49.090Z,5.87
2018-04-14T03:56:16.674Z,5.79
2018-04-14T03:58:44.194Z,5.89
2018-04-14T04:01:11.747Z,5.74
2018-04-14T04:03:39.811Z,5.79
2018-04-14T04:06:07.381Z,5.82
2018-04-14T04:08:34.901Z,5.79
2018-04-14T04:11:02.477Z,5.81
2018-04-14T04:13:30.006Z,5.87
2018-04-14T04:15:57.555Z,5.60
2018-04-14T04:18:37.038Z,5.71
2018-04-14T04:21:16.434Z,5.71
2018-04-14T04:23:55.751Z,5.67
2018-04-14T04:26:23.320Z,5.72
2018-04-14T04:28:50.839Z,5.66
2018-04-14T04:31:18.402Z,5.52
2018-04-14T04:33:45.949Z,5.68
2018-04-14T04:36:13.510Z,5.64
2018-04-14T04:38:41.033Z,5.59
2018-04-14T04:41:08.584Z,5.61
2018-04-14T04:43:36.137Z,5.68
2018-04-14T04:46:03.716Z,5.67
2018-04-14T04:48:31.238Z,5.63
2018-04-14T04:50:58.836Z,5.74
2018-04-14T04:53:26.369Z,5.65
2018-04-14T04:55:53.895Z,5.64
2018-04-14T04:58:21.472Z,5.78
2018-04-14T05:00:49.002Z,5.69
2018-04-14T05:03:16.572Z,5.63
2018-04-14T05:05:44.101Z,5.67
2018-04-14T05:08:11.680Z,5.68
2018-04-14T05:10:40.110Z,5.73
2018-04-14T05:13:07.732Z,5.83
2018-04-14T05:15:35.263Z,5.78
2018-04-14T05:18:02.840Z,5.66
2018-04-14T05:20:30.370Z,5.89
2018-04-14T05:22:57.972Z,6.04
2018-04-14T05:25:25.501Z,6.09
2018-04-14T05:27:53.090Z,6.17
2018-04-14T05:30:20.608Z,6.18
2018-04-14T05:32:48.184Z,6.16
2018-04-14T05:35:15.705Z,6.19
2018-04-14T05:37:43.261Z,6.15
2018-04-14T05:40:11.086Z,6.07
2018-04-14T05:42:38.666Z,6.34
2018-04-14T05:45:06.190Z,6.25
2018-04-14T05:47:33.745Z,6.18
2018-04-14T05:50:01.344Z,6.25
2018-04-14T05:52:28.942Z,6.48
2018-04-14T05:54:56.473Z,6.55
2018-04-14T05:57:24.039Z,6.67
2018-04-14T05:59:51.904Z,6.63
2018-04-14T06:02:26.667Z,6.49
2018-04-14T06:05:01.833Z,6.82
2018-04-14T06:07:30.227Z,6.81
2018-04-14T06:09:58.119Z,7.01
2018-04-14T06:12:26.266Z,7.03
2018-04-14T06:14:55.562Z,7.03
2018-04-14T06:17:23.320Z,7.22
2018-04-14T06:19:53.746Z,7.14
2018-04-14T06:22:24.450Z,7.51
2018-04-14T06:24:52.844Z,7.52
2018-04-14T06:27:20.730Z,7.71
2018-04-14T06:29:48.397Z,7.74
2018-04-14T06:32:16.039Z,7.90
2018-04-14T06:34:44.392Z,8.13
2018-04-14T06:37:12.117Z,8.23
2018-04-14T06:39:40.591Z,8.33
2018-04-14T06:42:08.221Z,8.48
2018-04-14T06:44:35.749Z,8.35
2018-04-14T06:47:03.326Z,8.32
2018-04-14T06:49:30.903Z,8.54
2018-04-14T06:51:58.427Z,8.62
2018-04-14T06:54:25.978Z,8.90
2018-04-14T06:56:53.610Z,9.05
2018-04-14T06:59:21.263Z,9.16
2018-04-14T07:01:48.810Z,9.16
2018-04-14T07:04:16.373Z,9.38
2018-04-14T07:06:43.966Z,9.46
2018-04-14T07:09:11.563Z,9.70
2018-04-14T07:11:39.120Z,9.92
2018-04-14T07:14:06.696Z,10.00
2018-04-14T07:16:34.224Z,9.93
2018-04-14T07:19:01.802Z,10.04
2018-04-14T07:21:29.573Z,10.09
2018-04-14T07:23:57.235Z,10.22
2018-04-14T07:26:24.803Z,10.16
2018-04-14T07:28:52.362Z,10.21
2018-04-14T07:31:20.187Z,10.15
2018-04-14T07:33:48.940Z,10.18
2018-04-14T07:36:16.492Z,10.32
2018-04-14T07:38:53.596Z,10.47
2018-04-14T07:41:21.746Z,10.54
2018-04-14T07:43:49.306Z,10.61
2018-04-14T07:46:17.002Z,10.66
2018-04-14T07:48:44.774Z,10.77
2018-04-14T07:51:12.658Z,10.80
2018-04-14T07:53:42.230Z,10.92
2018-04-14T07:56:13.485Z,11.03
2018-04-14T07:58:41.959Z,11.11
2018-04-14T08:01:09.517Z,11.17
2018-04-14T08:03:37.168Z,11.28
2018-04-14T08:06:04.847Z,11.28
2018-04-14T08:08:32.398Z,11.36
2018-04-14T08:11:00.389Z,11.47
2018-04-14T08:13:28.533Z,11.54
2018-04-14T08:15:56.072Z,11.63
2018-04-14T08:18:23.855Z,11.66
2018-04-14T08:20:51.631Z,11.78
2018-04-14T08:23:19.610Z,11.85
2018-04-14T08:25:48.132Z,11.86
2018-04-14T08:28:15.741Z,11.98
2018-04-14T08:30:46.693Z,12.04
2018-04-14T08:33:14.644Z,12.11
2018-04-14T08:35:42.200Z,12.18
2018-04-14T08:38:09.905Z,12.30
2018-04-14T08:40:37.778Z,12.45
2018-04-14T08:43:05.352Z,12.45
2018-04-14T08:45:32.909Z,12.52
2018-04-14T08:48:00.439Z,12.68
2018-04-14T08:50:28.010Z,12.71
2018-04-14T08:52:55.579Z,12.79
2018-04-14T08:55:23.137Z,12.94
2018-04-14T08:57:51.094Z,13.15
2018-04-14T09:00:18.676Z,13.36
2018-04-14T09:02:46.222Z,13.42
2018-04-14T09:05:13.797Z,13.56
2018-04-14T09:07:42.225Z,13.58
2018-04-14T09:10:09.776Z,13.79
2018-04-14T09:12:37.334Z,13.92
2018-04-14T09:15:20.531Z,14.02
2018-04-14T09:17:48.057Z,14.17
2018-04-14T09:20:15.613Z,14.16
2018-04-14T09:22:43.143Z,14.47
2018-04-14T09:25:10.714Z,14.57
2018-04-14T09:27:38.242Z,14.62
2018-04-14T09:30:05.818Z,14.51
2018-04-14T09:32:33.944Z,14.76
2018-04-14T09:35:01.576Z,14.77
2018-04-14T09:37:31.153Z,14.87
2018-04-14T09:39:58.734Z,14.80
2018-04-14T09:42:26.279Z,14.92
2018-04-14T09:44:53.837Z,15.11
2018-04-14T09:47:21.367Z,15.01
2018-04-14T09:49:49.509Z,15.26
2018-04-14T09:52:17.264Z,15.48
2018-04-14T09:54:44.847Z,15.65
2018-04-14T09:57:12.373Z,15.76
2018-04-14T09:59:39.928Z,15.64
2018-04-14T10:02:10.450Z,15.76
2018-04-14T10:04:38.029Z,15.81
2018-04-14T10:07:09.380Z,15.96
2018-04-14T10:09:36.959Z,16.03
2018-04-14T10:12:06.392Z,16.12
2018-04-14T10:14:33.986Z,16.16
2018-04-14T10:17:01.510Z,15.95
2018-04-14T10:19:29.091Z,16.25
2018-04-14T10:21:56.646Z,16.47
2018-04-14T10:24:24.197Z,16.44
2018-04-14T10:27:05.016Z,16.44
2018-04-14T10:29:32.573Z,16.48
2018-04-14T10:32:00.104Z,16.53
2018-04-14T10:34:27.677Z,16.79
2018-04-14T10:36:55.213Z,17.23
2018-04-14T10:39:22.759Z,17.29
2018-04-14T10:41:50.631Z,17.27
2018-04-14T10:44:18.164Z,17.58
2018-04-14T10:46:45.715Z,17.34
2018-04-14T10:49:13.246Z,17.61
2018-04-14T10:51:40.998Z,17.74
2018-04-14T10:54:08.549Z,17.90
2018-04-14T10:56:36.221Z,18.00
2018-04-14T10:59:03.778Z,17.60
2018-04-14T11:01:31.333Z,17.50
2018-04-14T11:04:01.265Z,17.77
2018-04-14T11:06:28.803Z,17.73
2018-04-14T11:08:56.367Z,17.66
2018-04-14T11:11:23.939Z,17.84
2018-04-14T11:13:51.471Z,18.07
2018-04-14T11:16:19.017Z,18.18
2018-04-14T11:18:46.527Z,18.07
2018-04-14T11:21:14.099Z,18.40
2018-04-14T11:23:42.607Z,18.60
2018-04-14T11:26:10.179Z,18.39
2018-04-14T11:28:37.705Z,18.46
2018-04-14T11:31:05.253Z,18.33
2018-04-14T11:33:32.765Z,18.61
2018-04-14T11:36:00.314Z,18.67
2018-04-14T11:38:27.839Z,18.36
2018-04-14T11:40:55.395Z,18.55
2018-04-14T11:43:23.023Z,18.51
2018-04-14T11:45:51.240Z,18.34
2018-04-14T11:48:18.851Z,18.65
2018-04-14T11:50:46.957Z,18.80
2018-04-14T11:53:14.522Z,18.89
2018-04-14T11:55:42.728Z,19.10
2018-04-14T11:58:10.334Z,18.98
2018-04-14T12:00:37.930Z,19.26
2018-04-14T12:03:06.305Z,19.63
2018-04-14T12:05:33.871Z,19.42
2018-04-14T12:08:01.647Z,19.24
2018-04-14T12:10:29.498Z,19.44
2018-04-14T12:12:57.452Z,19.43
2018-04-14T12:15:24.998Z,19.46
2018-04-14T12:17:52.707Z,19.46
2018-04-14T12:20:20.347Z,19.46
2018-04-14T12:22:48.183Z,19.50
2018-04-14T12:25:15.731Z,19.38
2018-04-14T12:27:43.712Z,19.47
2018-04-14T12:30:12.465Z,19.52
2018-04-14T12:32:40.027Z,19.45
2018-04-14T12:35:07.617Z,19.70
2018-04-14T12:37:35.167Z,19.65
2018-04-14T12:40:02.772Z,19.39
2018-04-14T12:42:30.389Z,19.18
2018-04-14T12:44:57.899Z,19.33
2018-04-14T12:47:27.488Z,19.45
2018-04-14T12:49:57.890Z,19.77
2018-04-14T12:52:26.782Z,19.80
2018-04-14T12:54:55.184Z,19.52
2018-04-14T12:57:22.811Z,20.03
2018-04-14T12:59:50.339Z,19.53
2018-04-14T13:02:17.913Z,20.15
2018-04-14T13:04:45.445Z,19.48
2018-04-14T13:07:13.870Z,19.36
2018-04-14T13:09:41.396Z,19.65
2018-04-14T13:12:09.125Z,19.71
2018-04-14T13:14:36.653Z,19.97
2018-04-14T13:17:04.209Z,19.73
2018-04-14T13:19:31.768Z,19.98
2018-04-14T13:21:59.310Z,20.04
2018-04-14T13:24:26.841Z,20.37
2018-04-14T13:26:54.390Z,20.63
2018-04-14T13:29:21.915Z,20.02
2018-04-14T13:31:53.371Z,20.24
2018-04-14T13:34:21.017Z,20.37
2018-04-14T13:36:48.772Z,20.08
2018-04-14T13:39:16.324Z,20.19
2018-04-14T13:41:43.902Z,20.05
2018-04-14T13:44:11.432Z,19.98
2018-04-14T13:46:39.904Z,19.57
2018-04-14T13:49:07.929Z,19.71
2018-04-14T13:51:35.438Z,19.89
2018-04-14T13:54:03.063Z,20.00
2018-04-14T13:56:30.692Z,19.58
2018-04-14T13:58:58.557Z,19.76
2018-04-14T14:01:26.421Z,19.94
2018-04-14T14:03:54.496Z,19.69
2018-04-14T14:06:22.026Z,19.49
2018-04-14T14:08:49.859Z,19.45
2018-04-14T14:11:17.503Z,19.30
2018-04-14T14:13:45.413Z,19.36
2018-04-14T14:16:13.982Z,19.47
2018-04-14T14:18:41.561Z,19.32
2018-04-14T14:21:09.269Z,19.47
2018-04-14T14:23:37.016Z,19.24
2018-04-14T14:26:04.593Z,19.40
2018-04-14T14:28:32.148Z,19.14
2018-04-14T14:30:59.672Z,19.24
2018-04-14T14:33:27.223Z,18.95
2018-04-14T14:35:55.180Z,19.07
2018-04-14T14:38:22.777Z,19.50
2018-04-14T14:40:50.305Z,19.56
2018-04-14T14:43:17.857Z,19.62
2018-04-14T14:45:45.384Z,19.65
2018-04-14T14:48:12.940Z,19.88
2018-04-14T14:50:40.464Z,19.92
2018-04-14T14:53:08.019Z,20.43
2018-04-14T14:55:35.545Z,19.97
2018-04-14T14:58:03.122Z,20.13
2018-04-14T15:00:30.649Z,20.07
2018-04-14T15:02:58.496Z,19.95
2018-04-14T15:05:26.157Z,19.64
2018-04-14T15:07:53.714Z,19.79
2018-04-14T15:10:21.439Z,19.92
2018-04-14T15:12:48.959Z,20.26
2018-04-14T15:15:16.612Z,20.26
2018-04-14T15:17:44.967Z,19.84
2018-04-14T15:20:12.518Z,19.55
2018-04-14T15:22:40.049Z,19.44
2018-04-14T15:25:07.597Z,19.51
2018-04-14T15:27:35.172Z,19.47
2018-04-14T15:30:03.224Z,19.53
2018-04-14T15:32:30.777Z,19.41
2018-04-14T15:34:58.455Z,19.38
2018-04-14T15:37:25.990Z,19.42
2018-04-14T15:39:53.558Z,19.21
2018-04-14T15:42:21.361Z,19.20
2018-04-14T15:44:48.958Z,19.22
2018-04-14T15:47:16.488Z,19.15
2018-04-14T15:49:44.073Z,19.07
2018-04-14T15:52:11.594Z,18.93
2018-04-14T15:54:39.272Z,18.99
2018-04-14T15:57:07.098Z,18.94
2018-04-14T15:59:34.669Z,18.94
2018-04-14T16:02:02.276Z,18.92
2018-04-14T16:04:29.961Z,19.06
2018-04-14T16:06:57.570Z,18.96
2018-04-14T16:09:25.176Z,19.01
2018-04-14T16:11:52.713Z,18.81
2018-04-14T16:14:20.266Z,18.68
2018-04-14T16:16:47.792Z,18.62
2018-04-14T16:19:15.416Z,18.58
2018-04-14T16:21:44.893Z,18.41
2018-04-14T16:24:12.923Z,18.47
2018-04-14T16:26:40.476Z,18.46
2018-04-14T16:29:08.081Z,18.46
2018-04-14T16:31:35.756Z,18.40
2018-04-14T16:34:03.308Z,18.32
2018-04-14T16:36:30.837Z,18.40
2018-04-14T16:39:00.158Z,18.39
2018-04-14T16:41:27.937Z,18.43
2018-04-14T16:43:55.945Z,18.41
2018-04-14T16:46:23.572Z,18.37
2018-04-14T16:48:51.097Z,18.46
2018-04-14T16:51:18.648Z,18.46
2018-04-14T16:53:46.654Z,18.46
2018-04-14T16:56:14.512Z,18.51
2018-04-14T16:58:42.230Z,18.65
2018-04-14T17:01:10.758Z,18.80
2018-04-14T17:03:39.239Z,18.85
2018-04-14T17:06:07.364Z,18.99
2018-04-14T17:08:35.012Z,18.95
2018-04-14T17:11:02.567Z,18.91
2018-04-14T17:13:30.221Z,18.86
2018-04-14T17:15:58.291Z,18.64
2018-04-14T17:18:27.482Z,18.64
2018-04-14T17:20:56.546Z,18.55
2018-04-14T17:23:25.461Z,18.55
2018-04-14T17:25:53.031Z,18.61
2018-04-14T17:28:20.782Z,18.50
2018-04-14T17:30:48.337Z,18.43
2018-04-14T17:33:16.914Z,18.30
2018-04-14T17:35:44.458Z,18.26
2018-04-14T17:38:12.009Z,18.29
2018-04-14T17:40:39.798Z,18.18
2018-04-14T17:43:07.323Z,18.08
2018-04-14T17:47:59.701Z,17.95
2018-04-14T17:50:27.256Z,17.91
2018-04-14T17:52:54.831Z,17.82
2018-04-14T17:55:22.410Z,17.78
2018-04-14T17:57:49.962Z,17.71
2018-04-14T18:00:17.534Z,17.62
2018-04-14T18:02:45.065Z,17.52
2018-04-14T18:05:12.617Z,17.43
2018-04-14T18:07:40.149Z,17.39
2018-04-14T18:10:07.950Z,17.32
2018-04-14T18:12:35.477Z,17.17
2018-04-14T18:15:03.029Z,17.11
2018-04-14T18:17:30.628Z,17.06
2018-04-14T18:19:58.158Z,16.93
2018-04-14T18:22:25.717Z,16.80
2018-04-14T18:24:53.311Z,16.77
2018-04-14T18:27:20.976Z,16.66
2018-04-14T18:29:48.541Z,16.58
2018-04-14T18:32:16.298Z,16.49
2018-04-14T18:34:43.849Z,16.29
2018-04-14T18:37:11.403Z,16.37
2018-04-14T18:39:38.924Z,16.35
2018-04-14T18:42:06.545Z,16.29
2018-04-14T18:44:34.077Z,16.15
2018-04-14T18:47:02.369Z,15.98
2018-04-14T18:49:29.885Z,15.86
2018-04-14T18:51:57.488Z,15.83
2018-04-14T18:54:25.024Z,15.82
2018-04-14T18:56:55.488Z,15.84
2018-04-14T18:59:23.173Z,15.85
2018-04-14T19:01:50.798Z,15.85
2018-04-14T19:04:18.321Z,15.89
2018-04-14T19:06:45.899Z,15.84
2018-04-14T19:09:16.725Z,15.84
2018-04-14T19:11:45.030Z,15.88
2018-04-14T19:14:13.101Z,15.81
2018-04-14T19:16:41.078Z,15.77
2018-04-14T19:19:08.841Z,15.69
2018-04-14T19:21:38.338Z,15.70
2018-04-14T19:24:05.967Z,15.65
2018-04-14T19:26:33.862Z,15.61
2018-04-14T19:29:05.448Z,15.52
2018-04-14T19:31:33.797Z,15.58
2018-04-14T19:34:03.346Z,15.44
2018-04-14T19:36:34.405Z,15.31
2018-04-14T19:39:02.420Z,15.32
2018-04-14T19:41:31.408Z,15.34
2018-04-14T19:44:02.661Z,15.32
2018-04-14T19:46:32.057Z,15.33
2018-04-14T19:49:01.113Z,15.31
2018-04-14T19:51:30.980Z,15.30
2018-04-14T19:54:01.675Z,15.22
2018-04-14T19:56:32.717Z,15.21
2018-04-14T19:59:00.490Z,15.19
2018-04-14T20:01:29.399Z,15.24
2018-04-14T20:03:58.737Z,15.22
2018-04-14T20:06:27.727Z,15.21
2018-04-14T20:08:55.561Z,15.18
2018-04-14T20:11:23.786Z,15.18
2018-04-14T20:13:51.908Z,15.17
2018-04-14T20:16:20.060Z,15.13
2018-04-14T20:18:47.641Z,15.11
2018-04-14T20:21:16.318Z,15.11
2018-04-14T20:23:45.272Z,15.09
2018-04-14T20:26:14.518Z,15.11
2018-04-14T20:28:43.051Z,15.06
2018-04-14T20:31:11.681Z,15.10
2018-04-14T20:33:39.254Z,15.10
2018-04-14T20:36:06.807Z,14.97
2018-04-14T20:38:34.778Z,14.93
2018-04-14T20:41:02.737Z,14.94
2018-04-14T20:43:30.813Z,14.90
2018-04-14T20:45:59.663Z,14.56
2018-04-14T20:48:27.893Z,14.58
2018-04-14T20:50:55.925Z,14.49
2018-04-14T20:53:25.132Z,14.65
2018-04-14T20:55:52.838Z,14.74
2018-04-14T20:58:21.523Z,14.69
2018-04-14T21:00:49.580Z,14.65
2018-04-14T21:03:18.034Z,14.72
2018-04-14T21:05:46.234Z,14.34
2018-04-14T21:08:14.080Z,14.27
2018-04-14T21:10:42.058Z,14.29
2018-04-14T21:13:09.723Z,14.40
2018-04-14T21:15:37.243Z,14.05
2018-04-14T21:18:04.794Z,14.19
2018-04-14T21:20:32.322Z,14.20
2018-04-14T21:22:59.959Z,14.11
2018-04-14T21:25:27.619Z,14.18
2018-04-14T21:27:55.420Z,14.12
2018-04-14T21:30:22.956Z,14.18
2018-04-14T21:32:50.526Z,14.22
2018-04-14T21:35:18.266Z,14.18
2018-04-14T21:37:45.863Z,14.17
2018-04-14T21:40:13.413Z,14.08
2018-04-14T21:42:41.048Z,14.00
2018-04-14T21:45:08.570Z,14.15
2018-04-14T21:47:36.172Z,14.21
2018-04-14T21:50:04.087Z,14.17
2018-04-14T21:52:31.893Z,14.21
2018-04-14T21:54:59.573Z,14.07
2018-04-14T21:57:27.679Z,13.89
2018-04-14T21:59:55.633Z,13.88
2018-04-14T22:02:23.209Z,13.90
2018-04-14T22:04:50.879Z,13.96
2018-04-14T22:07:19.265Z,13.82
2018-04-14T22:09:47.405Z,14.00
2018-04-14T22:12:15.059Z,14.17
2018-04-14T22:14:42.641Z,14.35
2018-04-14T22:17:10.229Z,14.35
2018-04-14T22:19:38.231Z,14.27
2018-04-14T22:22:06.204Z,14.32
2018-04-14T22:24:34.437Z,14.33
2018-04-14T22:27:02.146Z,14.22
2018-04-14T22:29:29.809Z,14.30
2018-04-14T22:31:57.365Z,14.24
2018-04-14T22:34:27.777Z,14.22
2018-04-14T22:36:55.302Z,14.27
2018-04-14T22:39:23.521Z,14.22
2018-04-14T22:41:51.078Z,14.22
2018-04-14T22:44:18.624Z,14.20
2018-04-14T22:46:46.175Z,14.21
2018-04-14T22:49:13.753Z,14.25
2018-04-14T22:51:41.319Z,14.18
2018-04-14T22:54:08.984Z,14.13
2018-04-14T22:56:36.541Z,14.15
2018-04-14T22:59:04.087Z,14.17
2018-04-14T23:01:31.613Z,14.14
2018-04-14T23:03:59.151Z,14.08
2018-04-14T23:06:26.697Z,14.13
2018-04-14T23:08:54.272Z,14.06
2018-04-14T23:11:21.803Z,14.09
2018-04-14T23:13:49.453Z,14.17
2018-04-14T23:16:16.966Z,14.07
2018-04-14T23:18:44.577Z,14.10
2018-04-14T23:21:12.133Z,14.05
2018-04-14T23:23:39.686Z,14.04
2018-04-14T23:26:07.262Z,14.04
2018-04-14T23:28:34.814Z,14.03
2018-04-14T23:31:02.337Z,13.91
2018-04-14T23:33:29.969Z,13.85
2018-04-14T23:35:57.496Z,13.85
2018-04-14T23:38:25.047Z,13.82
2018-04-14T23:40:52.569Z,13.87
2018-04-14T23:43:20.175Z,13.88
2018-04-14T23:45:48.493Z,13.91
2018-04-14T23:48:16.001Z,13.72
2018-04-14T23:50:43.558Z,13.65
2018-04-14T23:53:11.072Z,13.55
2018-04-14T23:55:38.635Z,13.52
2018-04-14T23:58:06.166Z,13.42
